Time;durP1;ratioP1;P1;durP2;ratioP2;P2;SDS_P1;SDS_P2;PMS_P1;PMS_P2;Temp;Humidity;BMP_temperature;BMP_pressure;BME280_temperature;BME280_humidity;BME280_pressure;Samples;Min_cycle;Max_cycle;Signal;HPM_P1;HPM_P2
2023/08/10 00:02:30;;;;;;;0.10;0.10;;;;;;;12.20;100.00;96961.84;5022137;28;20090;-81
2023/08/10 00:05:15;;;;;;;0.13;0.13;;;;;;;11.92;100.00;96973.50;5023945;28;20044;-82
2023/08/10 00:08:01;;;;;;;0.10;0.10;;;;;;;11.85;100.00;96964.81;5024170;28;20045;-80
2023/08/10 00:10:50;;;;;;;0.20;0.20;;;;;;;12.05;100.00;96980.38;5022536;28;20140;-80
2023/08/10 00:13:35;;;;;;;0.10;0.10;;;;;;;12.28;100.00;96981.00;5020761;28;20041;-80
2023/08/10 00:16:21;;;;;;;0.10;0.10;;;;;;;12.47;100.00;96970.00;5023826;28;20045;-81
2023/08/10 00:19:07;;;;;;;0.10;0.10;;;;;;;12.43;100.00;96974.25;5022321;28;20130;-80
2023/08/10 00:21:53;;;;;;;0.10;0.10;;;;;;;12.58;100.00;96963.72;5022121;28;20794;-81
2023/08/10 00:24:39;;;;;;;0.10;0.10;;;;;;;12.55;100.00;96965.03;5022702;28;20036;-82
2023/08/10 00:27:25;;;;;;;0.13;0.13;;;;;;;12.46;100.00;96952.28;5021617;28;20095;-82
2023/08/10 00:30:12;;;;;;;0.10;0.10;;;;;;;12.27;100.00;96957.13;5008177;28;21190;-79
2023/08/10 00:32:58;;;;;;;0.10;0.10;;;;;;;12.41;100.00;96954.91;5021364;28;20041;-81
2023/08/10 00:35:44;;;;;;;0.10;0.10;;;;;;;12.39;100.00;96957.03;5022926;28;20607;-81
2023/08/10 00:38:29;;;;;;;0.10;0.10;;;;;;;12.59;100.00;96953.78;5020358;28;20053;-82
2023/08/10 00:41:15;;;;;;;0.10;0.10;;;;;;;12.71;100.00;96966.03;5022757;28;20401;-82
2023/08/10 00:44:03;;;;;;;0.10;0.10;;;;;;;12.63;100.00;96966.47;5021014;28;20068;-82
2023/08/10 00:46:50;;;;;;;0.10;0.10;;;;;;;12.67;100.00;96964.09;5011324;28;20646;-82
2023/08/10 00:49:36;;;;;;;0.10;0.10;;;;;;;12.80;100.00;96961.84;5022242;28;20044;-80
2023/08/10 00:52:22;;;;;;;0.10;0.10;;;;;;;12.82;100.00;96961.59;5020040;28;20057;-82
2023/08/10 00:55:08;;;;;;;0.10;0.10;;;;;;;12.82;100.00;96966.97;5015360;28;20490;-80
2023/08/10 00:57:54;;;;;;;0.10;0.10;;;;;;;12.70;100.00;96968.97;5022188;28;20927;-81
2023/08/10 01:00:40;;;;;;;0.10;0.10;;;;;;;12.78;100.00;96976.59;5009792;28;20144;-80
2023/08/10 01:03:26;;;;;;;0.10;0.10;;;;;;;12.70;100.00;96982.41;5009423;28;20067;-82
2023/08/10 01:06:25;;;;;;;0.08;0.08;;;;;;;12.64;100.00;96976.13;5020202;28;20049;-80
2023/08/10 01:09:38;;;;;;;0.10;0.10;;;;;;;12.66;100.00;96973.19;4999864;28;20025;-80
2023/08/10 01:12:38;;;;;;;0.10;0.10;;;;;;;12.69;100.00;96970.03;5018381;28;20107;-82
2023/08/10 01:15:40;;;;;;;0.10;0.10;;;;;;;12.66;100.00;96975.88;5022432;28;20091;-80
2023/08/10 01:18:29;;;;;;;0.10;0.10;;;;;;;12.62;100.00;96974.78;5006897;28;20048;-81
2023/08/10 01:21:40;;;;;;;0.10;0.10;;;;;;;12.66;100.00;96981.25;5011966;28;20041;-80
2023/08/10 01:24:30;;;;;;;0.10;0.10;;;;;;;12.62;100.00;96980.97;5021033;28;20037;-79
2023/08/10 01:27:17;;;;;;;0.10;0.10;;;;;;;12.76;100.00;96992.13;5009105;28;20115;-80
2023/08/10 01:30:07;;;;;;;0.10;0.10;;;;;;;12.75;100.00;96985.94;5010371;28;20037;-81
2023/08/10 01:32:53;;;;;;;0.10;0.10;;;;;;;12.62;100.00;96990.88;5002734;28;20037;-81
2023/08/10 01:35:39;;;;;;;0.10;0.10;;;;;;;12.75;100.00;96996.69;5005001;28;20119;-81
2023/08/10 01:38:25;;;;;;;0.10;0.10;;;;;;;12.87;100.00;96996.56;5004315;28;20118;-81
2023/08/10 01:41:11;;;;;;;0.10;0.10;;;;;;;12.93;100.00;96997.47;4977105;28;20671;-81
2023/08/10 01:43:57;;;;;;;0.10;0.10;;;;;;;13.01;100.00;96991.66;4984090;28;20035;-81
2023/08/10 01:46:46;;;;;;;0.10;0.10;;;;;;;12.88;100.00;96995.50;4986363;28;20034;-81
2023/08/10 01:49:35;;;;;;;0.10;0.10;;;;;;;12.77;100.00;96994.59;4975925;28;20052;-82
2023/08/10 01:52:26;;;;;;;0.10;0.10;;;;;;;12.78;100.00;96990.03;4978016;28;20100;-79
2023/08/10 01:55:13;;;;;;;0.10;0.10;;;;;;;12.75;100.00;96985.13;4974994;28;20046;-80
2023/08/10 01:57:59;;;;;;;0.10;0.10;;;;;;;12.86;100.00;96986.91;4986960;28;20141;-80
2023/08/10 02:00:45;;;;;;;0.10;0.10;;;;;;;12.85;100.00;96987.97;4990184;28;20053;-80
2023/08/10 02:03:31;;;;;;;0.10;0.10;;;;;;;12.81;100.00;96987.63;5005922;28;20049;-80
2023/08/10 02:06:17;;;;;;;0.10;0.10;;;;;;;12.77;100.00;96988.41;4993761;28;20041;-80
2023/08/10 02:09:05;;;;;;;0.10;0.10;;;;;;;12.60;100.00;96987.63;4991483;28;20029;-79
2023/08/10 02:11:51;;;;;;;0.10;0.10;;;;;;;12.37;100.00;96988.63;4992280;28;20040;-80
2023/08/10 02:14:36;;;;;;;0.08;0.08;;;;;;;12.33;100.00;96992.88;4989623;28;20044;-81
2023/08/10 02:17:22;;;;;;;0.10;0.10;;;;;;;12.45;100.00;96989.06;4991051;28;20112;-79
2023/08/10 02:20:14;;;;;;;0.10;0.10;;;;;;;12.54;100.00;96990.25;4991733;28;20042;-79
2023/08/10 02:23:00;;;;;;;0.10;0.10;;;;;;;12.57;100.00;96974.69;5001243;28;20038;-81
2023/08/10 02:25:45;;;;;;;0.10;0.10;;;;;;;12.55;100.00;96980.31;4997834;28;20048;-81
2023/08/10 02:28:31;;;;;;;0.15;0.15;;;;;;;12.61;100.00;96976.66;4990171;28;20052;-79
2023/08/10 02:31:17;;;;;;;0.10;0.10;;;;;;;12.68;100.00;96981.81;4991384;28;20048;-79
2023/08/10 02:34:03;;;;;;;0.10;0.10;;;;;;;12.65;100.00;96980.44;4996616;28;20042;-81
2023/08/10 02:36:49;;;;;;;0.10;0.10;;;;;;;12.53;100.00;96985.13;5005604;28;20116;-80
2023/08/10 02:39:35;;;;;;;0.10;0.10;;;;;;;12.62;100.00;96978.28;5014325;28;20505;-81
2023/08/10 02:42:21;;;;;;;0.20;0.20;;;;;;;12.73;100.00;96965.78;5016539;28;20480;-82
2023/08/10 02:45:07;;;;;;;0.10;0.10;;;;;;;12.77;100.00;96973.09;5025522;28;20360;-81
2023/08/10 02:47:54;;;;;;;0.03;0.03;;;;;;;12.63;100.00;96971.03;5002288;28;20033;-80
2023/08/10 02:50:39;;;;;;;0.10;0.10;;;;;;;12.69;100.00;96972.72;5009950;28;20499;-82
2023/08/10 02:53:26;;;;;;;0.10;0.10;;;;;;;12.75;100.00;96974.38;5023572;28;20053;-80
2023/08/10 02:56:11;;;;;;;0.10;0.10;;;;;;;12.65;100.00;96968.91;5023821;28;20033;-79
2023/08/10 02:58:57;;;;;;;0.10;0.10;;;;;;;12.61;100.00;96973.16;5010069;28;20041;-79
2023/08/10 03:01:45;;;;;;;0.10;0.10;;;;;;;12.59;100.00;96969.88;5009686;28;20156;-79
2023/08/10 03:04:32;;;;;;;0.10;0.10;;;;;;;12.43;100.00;96974.25;5002672;28;20563;-80
2023/08/10 03:07:18;;;;;;;0.10;0.10;;;;;;;12.52;100.00;96975.44;5023665;28;20045;-78
2023/08/10 03:10:05;;;;;;;0.10;0.10;;;;;;;12.43;100.00;96976.91;5010715;28;20454;-80
2023/08/10 03:12:53;;;;;;;0.10;0.10;;;;;;;12.35;100.00;96980.84;5010498;28;20036;-79
2023/08/10 03:15:39;;;;;;;0.10;0.10;;;;;;;12.46;100.00;96984.50;5025383;28;20045;-79
2023/08/10 03:18:25;;;;;;;0.00;0.00;;;;;;;12.42;100.00;96981.47;5021750;28;20503;-79
2023/08/10 03:21:11;;;;;;;0.00;0.00;;;;;;;12.54;100.00;96979.50;5011815;28;20598;-79
2023/08/10 03:23:57;;;;;;;0.10;0.10;;;;;;;12.48;100.00;96969.75;5010213;28;20041;-78
2023/08/10 03:26:43;;;;;;;0.10;0.10;;;;;;;12.61;100.00;96971.28;5010507;28;20103;-78
2023/08/10 03:29:29;;;;;;;0.10;0.10;;;;;;;12.39;100.00;96960.50;5010450;28;20410;-80
2023/08/10 03:32:16;;;;;;;0.10;0.10;;;;;;;12.37;100.00;96962.59;5010775;28;20044;-80
2023/08/10 03:35:02;;;;;;;0.10;0.10;;;;;;;12.36;100.00;96970.91;5015731;28;20099;-80
2023/08/10 03:37:50;;;;;;;0.10;0.10;;;;;;;12.38;100.00;96977.69;5023035;28;20742;-81
2023/08/10 03:40:36;;;;;;;0.10;0.10;;;;;;;12.55;100.00;96977.63;5001107;28;20150;-80
2023/08/10 03:43:22;;;;;;;0.10;0.10;;;;;;;12.56;100.00;96979.25;4996857;28;20472;-80
2023/08/10 03:46:08;;;;;;;0.10;0.10;;;;;;;12.52;100.00;96984.28;5003832;28;20491;-80
2023/08/10 03:48:54;;;;;;;0.10;0.10;;;;;;;12.57;100.00;96990.81;4989549;28;20116;-79
2023/08/10 03:51:40;;;;;;;0.10;0.10;;;;;;;12.64;100.00;96989.56;4990774;28;20041;-80
2023/08/10 03:54:29;;;;;;;0.05;0.05;;;;;;;12.76;100.00;96992.13;4992378;28;20038;-80
2023/08/10 03:57:15;;;;;;;0.00;0.00;;;;;;;12.68;100.00;97001.41;5002843;28;20038;-79
2023/08/10 04:00:03;;;;;;;0.10;0.10;;;;;;;12.78;100.00;97000.75;5002285;28;20133;-80
2023/08/10 04:02:49;;;;;;;0.10;0.10;;;;;;;12.59;100.00;97002.91;4990431;28;20041;-80
2023/08/10 04:05:39;;;;;;;0.10;0.10;;;;;;;12.62;100.00;97012.38;4991111;28;20037;-81
2023/08/10 04:08:26;;;;;;;0.10;0.10;;;;;;;12.66;100.00;97013.47;4991157;28;20045;-80
2023/08/10 04:11:12;;;;;;;0.10;0.10;;;;;;;12.68;100.00;97014.03;4995817;28;20033;-82
2023/08/10 04:13:58;;;;;;;0.10;0.10;;;;;;;12.69;100.00;97004.94;5003879;28;20080;-80
2023/08/10 04:16:45;;;;;;;0.10;0.10;;;;;;;12.77;100.00;97009.88;5003947;28;20402;-78
2023/08/10 04:19:30;;;;;;;0.10;0.10;;;;;;;12.77;100.00;97007.19;4989656;28;20037;-79
2023/08/10 04:22:16;;;;;;;0.10;0.10;;;;;;;12.81;100.00;97013.69;5003241;28;20045;-82
2023/08/10 04:25:03;;;;;;;0.10;0.10;;;;;;;12.94;100.00;97009.81;5001883;28;20107;-82
2023/08/10 04:27:49;;;;;;;0.10;0.10;;;;;;;13.02;100.00;97022.81;5002013;28;20075;-82
2023/08/10 04:30:35;;;;;;;0.10;0.10;;;;;;;13.08;100.00;97022.63;5002749;28;20728;-82
2023/08/10 04:33:21;;;;;;;0.00;0.00;;;;;;;13.07;100.00;97026.38;4991174;28;20050;-82
2023/08/10 04:36:07;;;;;;;0.17;0.17;;;;;;;13.01;100.00;97022.00;5000853;28;20040;-81
2023/08/10 04:38:53;;;;;;;0.10;0.10;;;;;;;12.88;100.00;97026.94;5007467;28;20239;-81
2023/08/10 04:41:39;;;;;;;0.10;0.10;;;;;;;12.77;100.00;97034.88;5023680;28;20051;-80
2023/08/10 04:44:25;;;;;;;0.10;0.10;;;;;;;12.66;100.00;97029.59;5021985;28;20148;-80
2023/08/10 04:47:11;;;;;;;0.10;0.10;;;;;;;12.62;100.00;97034.66;5023839;28;20056;-81
2023/08/10 04:49:57;;;;;;;0.10;0.10;;;;;;;12.57;100.00;97031.88;5022923;28;20029;-80
2023/08/10 04:52:43;;;;;;;0.10;0.10;;;;;;;12.57;100.00;97026.50;5013502;28;20040;-79
2023/08/10 04:55:32;;;;;;;0.10;0.10;;;;;;;12.55;100.00;97031.31;5024041;28;21011;-82
2023/08/10 04:58:18;;;;;;;0.10;0.10;;;;;;;12.69;100.00;97034.47;5022340;28;20042;-79
2023/08/10 05:01:04;;;;;;;0.10;0.10;;;;;;;12.87;100.00;97034.19;5021473;28;20099;-81
2023/08/10 05:03:49;;;;;;;0.10;0.10;;;;;;;13.00;100.00;97036.50;5023027;28;20046;-80
2023/08/10 05:06:36;;;;;;;0.10;0.10;;;;;;;13.18;100.00;97045.31;5023290;28;20037;-79
2023/08/10 05:09:23;;;;;;;0.10;0.10;;;;;;;13.25;100.00;97044.09;5022275;28;20136;-79
2023/08/10 05:12:09;;;;;;;0.10;0.10;;;;;;;13.41;100.00;97042.38;5021901;28;20099;-81
2023/08/10 05:14:55;;;;;;;0.10;0.10;;;;;;;13.55;100.00;97046.31;5009711;28;20037;-80
2023/08/10 05:17:41;;;;;;;0.10;0.10;;;;;;;13.63;100.00;97048.53;5023267;28;20052;-81
2023/08/10 05:20:27;;;;;;;0.10;0.10;;;;;;;13.68;100.00;97042.38;5021771;28;20033;-79
2023/08/10 05:23:15;;;;;;;0.10;0.10;;;;;;;13.68;100.00;97044.25;5027038;28;20490;-79
2023/08/10 05:26:01;;;;;;;0.10;0.10;;;;;;;13.80;100.00;97042.25;5028065;28;20372;-80
2023/08/10 05:28:47;;;;;;;0.10;0.10;;;;;;;13.83;100.00;97050.59;5028130;28;20941;-83
2023/08/10 05:31:33;;;;;;;0.10;0.10;;;;;;;13.89;100.00;97051.47;5024424;28;20059;-83
2023/08/10 05:34:19;;;;;;;0.10;0.10;;;;;;;13.95;100.00;97053.16;5024737;28;20586;-81
2023/08/10 05:37:05;;;;;;;0.10;0.10;;;;;;;13.99;100.00;97048.06;5027165;28;20079;-80
2023/08/10 05:39:51;;;;;;;0.10;0.10;;;;;;;14.03;100.00;97060.75;5027271;28;20042;-79
2023/08/10 05:42:38;;;;;;;0.10;0.10;;;;;;;14.06;100.00;97057.53;5027439;28;20036;-80
2023/08/10 05:45:25;;;;;;;0.10;0.10;;;;;;;14.09;100.00;97058.94;5028758;28;20550;-81
2023/08/10 05:48:12;;;;;;;0.10;0.10;;;;;;;14.09;100.00;97046.28;5027257;28;20049;-82
2023/08/10 05:50:58;;;;;;;0.10;0.10;;;;;;;14.14;100.00;97051.69;5031437;28;20033;-79
2023/08/10 05:53:44;;;;;;;0.10;0.10;;;;;;;14.19;100.00;97049.03;5028782;28;20486;-81
2023/08/10 05:56:30;;;;;;;0.10;0.10;;;;;;;14.29;100.00;97060.97;5026726;28;20037;-81
2023/08/10 05:59:16;;;;;;;0.10;0.10;;;;;;;14.41;100.00;97064.28;5029196;28;20037;-81
2023/08/10 06:02:02;;;;;;;0.10;0.10;;;;;;;14.44;100.00;97061.88;5025134;28;20049;-82
2023/08/10 06:04:49;;;;;;;0.10;0.10;;;;;;;14.52;100.00;97052.53;5029940;28;20103;-81
2023/08/10 06:07:35;;;;;;;0.10;0.10;;;;;;;14.41;100.00;97056.22;5029155;28;20037;-79
2023/08/10 06:10:20;;;;;;;0.10;0.10;;;;;;;14.58;100.00;97054.22;5026440;28;20144;-79
2023/08/10 06:13:06;;;;;;;0.10;0.10;;;;;;;14.66;100.00;97053.72;5025990;28;20038;-79
2023/08/10 06:15:52;;;;;;;0.20;0.20;;;;;;;14.65;100.00;97060.19;5026580;28;20554;-79
2023/08/10 06:18:38;;;;;;;0.10;0.10;;;;;;;14.71;100.00;97055.66;5025788;28;20459;-80
2023/08/10 06:21:24;;;;;;;0.03;0.03;;;;;;;14.83;100.00;97068.91;5017758;28;20746;-81
2023/08/10 06:24:10;;;;;;;0.10;0.10;;;;;;;14.89;100.00;97067.88;5027465;28;20038;-80
2023/08/10 06:26:57;;;;;;;0.10;0.10;;;;;;;14.95;100.00;97064.94;5025886;28;20076;-80
2023/08/10 06:29:43;;;;;;;0.10;0.10;;;;;;;15.16;100.00;97067.72;5013842;28;20067;-82
2023/08/10 06:32:28;;;;;;;0.10;0.10;;;;;;;15.26;100.00;97071.28;4998439;28;20037;-81
2023/08/10 06:35:15;;;;;;;0.00;0.00;;;;;;;15.24;100.00;97076.13;5027687;28;20493;-81
2023/08/10 06:38:04;;;;;;;0.10;0.10;;;;;;;15.18;100.00;97071.00;5011904;28;20052;-83
2023/08/10 06:40:50;;;;;;;0.10;0.10;;;;;;;15.11;100.00;97071.22;4987705;28;20449;-80
2023/08/10 06:43:35;;;;;;;0.10;0.10;;;;;;;15.14;100.00;97070.69;4999695;28;20049;-79
2023/08/10 06:46:21;;;;;;;0.10;0.10;;;;;;;15.04;100.00;97060.69;5013776;28;20103;-82
2023/08/10 06:49:07;;;;;;;0.10;0.10;;;;;;;15.20;100.00;97053.47;5014546;28;20055;-81
2023/08/10 06:51:53;;;;;;;0.10;0.10;;;;;;;15.38;100.00;97056.75;4998594;28;20045;-80
2023/08/10 06:54:39;;;;;;;0.10;0.10;;;;;;;15.17;100.00;97062.06;5003363;28;20486;-80
2023/08/10 06:57:25;;;;;;;0.10;0.10;;;;;;;15.24;100.00;97059.94;5013345;28;20045;-80
2023/08/10 07:00:13;;;;;;;0.05;0.05;;;;;;;15.16;100.00;97073.13;5016331;28;20099;-81
2023/08/10 07:02:59;;;;;;;0.20;0.20;;;;;;;14.98;100.00;97077.06;5014632;28;20034;-81
2023/08/10 07:05:45;;;;;;;0.10;0.10;;;;;;;14.81;100.00;97090.72;5016664;28;20045;-81
2023/08/10 07:08:31;;;;;;;0.10;0.10;;;;;;;14.63;100.00;97086.56;5012743;28;20081;-79
2023/08/10 07:11:17;;;;;;;0.10;0.10;;;;;;;14.62;100.00;97081.41;4986879;28;20050;-79
2023/08/10 07:14:03;;;;;;;0.10;0.10;;;;;;;14.55;100.00;97088.91;5014795;28;20037;-81
2023/08/10 07:16:49;;;;;;;0.10;0.10;;;;;;;14.56;100.00;97093.25;5014015;28;20041;-81
2023/08/10 07:19:36;;;;;;;0.10;0.10;;;;;;;14.57;100.00;97093.00;5013077;28;20088;-81
2023/08/10 07:22:22;;;;;;;0.10;0.10;;;;;;;14.44;100.00;97104.16;5013366;28;20131;-80
2023/08/10 07:25:07;;;;;;;0.10;0.10;;;;;;;14.51;100.00;97104.78;5014701;28;20459;-81
2023/08/10 07:27:53;;;;;;;0.10;0.10;;;;;;;14.49;100.00;97112.31;4999488;28;20061;-79
2023/08/10 07:30:39;;;;;;;0.10;0.10;;;;;;;14.57;100.00;97114.53;5010094;28;20129;-80
2023/08/10 07:33:25;;;;;;;0.10;0.10;;;;;;;14.60;100.00;97111.31;5009887;28;20618;-81
2023/08/10 07:36:11;;;;;;;0.10;0.10;;;;;;;14.62;100.00;97098.38;5012033;28;20140;-79
2023/08/10 07:38:59;;;;;;;0.10;0.10;;;;;;;14.55;100.00;97105.06;5014575;28;20060;-80
2023/08/10 07:41:45;;;;;;;0.10;0.10;;;;;;;14.61;100.00;97104.03;5025006;28;20053;-80
2023/08/10 07:44:31;;;;;;;0.10;0.10;;;;;;;14.62;100.00;97102.97;5023184;28;20803;-81
2023/08/10 07:47:17;;;;;;;0.00;0.00;;;;;;;14.69;100.00;97107.06;5024717;28;20873;-81
2023/08/10 07:50:03;;;;;;;0.10;0.10;;;;;;;14.66;100.00;97107.59;5024111;28;20033;-80
2023/08/10 07:52:49;;;;;;;0.13;0.13;;;;;;;14.77;100.00;97103.06;5026037;28;20627;-79
2023/08/10 07:55:35;;;;;;;0.10;0.10;;;;;;;14.78;100.00;97104.69;5026943;28;20054;-80
2023/08/10 07:58:22;;;;;;;0.10;0.10;;;;;;;14.87;100.00;97102.34;5011681;28;20051;-82
2023/08/10 08:01:08;;;;;;;0.10;0.10;;;;;;;14.98;100.00;97104.84;5025310;28;20613;-80
2023/08/10 08:03:53;;;;;;;0.10;0.10;;;;;;;15.05;100.00;97101.91;5023293;28;20041;-83
2023/08/10 08:06:39;;;;;;;0.10;0.10;;;;;;;15.12;100.00;97107.88;5024062;28;20036;-87
2023/08/10 08:09:25;;;;;;;0.10;0.10;;;;;;;15.14;100.00;97096.84;5023053;28;20100;-82
2023/08/10 08:12:11;;;;;;;0.10;0.10;;;;;;;15.16;100.00;97087.41;5023871;28;20148;-85
2023/08/10 08:14:57;;;;;;;0.20;0.20;;;;;;;15.23;100.00;97087.97;5025062;28;20044;-83
2023/08/10 08:18:20;;;;;;;0.17;0.17;;;;;;;15.37;100.00;97085.63;5022746;28;20501;-84
2023/08/10 08:21:08;;;;;;;0.10;0.10;;;;;;;15.41;100.00;97084.03;5023528;28;20037;-81
2023/08/10 08:23:55;;;;;;;0.10;0.10;;;;;;;15.45;100.00;97077.00;5023865;28;20613;-80
2023/08/10 08:26:41;;;;;;;0.10;0.10;;;;;;;15.48;100.00;97081.88;5025322;28;20078;-84
2023/08/10 08:29:27;;;;;;;0.10;0.10;;;;;;;15.56;100.00;97088.63;5023028;28;20044;-81
2023/08/10 08:32:12;;;;;;;0.13;0.13;;;;;;;15.62;100.00;97086.81;5022069;28;20045;-83
2023/08/10 08:34:58;;;;;;;0.10;0.10;;;;;;;15.59;100.00;97085.44;5014557;28;20502;-79
2023/08/10 08:37:45;;;;;;;0.10;0.10;;;;;;;15.75;100.00;97091.72;5023953;28;20041;-82
2023/08/10 08:40:31;;;;;;;0.10;0.10;;;;;;;15.85;100.00;97086.34;5016125;28;20133;-83
2023/08/10 08:43:18;;;;;;;0.10;0.10;;;;;;;15.94;100.00;97089.31;5012832;28;20041;-80
2023/08/10 08:46:05;;;;;;;0.10;0.10;;;;;;;16.03;100.00;97090.41;5023136;28;20912;-83
2023/08/10 08:48:51;;;;;;;0.10;0.10;;;;;;;15.99;100.00;97082.03;5023951;28;20114;-82
2023/08/10 08:51:38;;;;;;;0.10;0.10;;;;;;;16.13;100.00;97087.75;5023502;28;20030;-82
2023/08/10 08:54:25;;;;;;;0.13;0.13;;;;;;;16.17;100.00;97081.50;5025003;28;20473;-83
2023/08/10 08:57:11;;;;;;;0.10;0.10;;;;;;;16.19;100.00;97086.66;5011541;28;20033;-83
2023/08/10 08:59:57;;;;;;;0.10;0.10;;;;;;;16.31;100.00;97079.09;5027042;28;20076;-82
2023/08/10 09:02:43;;;;;;;0.10;0.10;;;;;;;16.48;100.00;97088.81;5028518;28;20041;-83
2023/08/10 09:05:30;;;;;;;0.10;0.10;;;;;;;16.52;100.00;97084.50;5028886;28;20040;-85
2023/08/10 09:08:18;;;;;;;0.10;0.10;;;;;;;16.59;100.00;97080.44;5027301;28;20047;-78
2023/08/10 09:11:04;;;;;;;0.10;0.10;;;;;;;16.68;100.00;97073.41;5030628;28;20651;-83
2023/08/10 09:14:09;;;;;;;0.10;0.10;;;;;;;16.70;97.83;97067.75;5037111;28;20172;-80
2023/08/10 09:16:54;;;;;;;0.00;0.00;;;;;;;16.84;99.92;97066.13;5039936;28;20059;-82
2023/08/10 09:19:41;;;;;;;0.17;0.15;;;;;;;16.99;100.00;97066.09;5027609;28;20033;-81
2023/08/10 09:22:34;;;;;;;0.10;0.10;;;;;;;17.12;100.00;97066.56;5024648;28;20150;-79
2023/08/10 09:25:20;;;;;;;0.10;0.10;;;;;;;17.22;100.00;97064.66;5028248;28;20049;-83
2023/08/10 09:28:08;;;;;;;0.13;0.13;;;;;;;17.34;100.00;97061.63;5019354;28;20476;-82
2023/08/10 09:30:56;;;;;;;0.17;0.17;;;;;;;17.37;100.00;97058.38;5020920;28;20069;-82
2023/08/10 09:33:42;;;;;;;0.10;0.10;;;;;;;17.46;100.00;97058.63;5027925;28;20038;-83
2023/08/10 09:36:29;;;;;;;0.10;0.10;;;;;;;17.46;92.69;97053.19;5026964;28;20105;-81
2023/08/10 09:39:18;;;;;;;0.10;0.10;;;;;;;17.80;93.17;97056.81;5029162;28;20069;-81
2023/08/10 09:42:07;;;;;;;0.10;0.10;;;;;;;17.95;87.33;97050.50;5022014;28;20056;-82
2023/08/10 09:44:53;;;;;;;0.10;0.10;;;;;;;18.03;82.90;97049.91;5032349;28;20066;-81
2023/08/10 09:47:41;;;;;;;0.10;0.10;;;;;;;18.22;84.16;97046.53;5018976;28;20051;-85
2023/08/10 09:50:27;;;;;;;0.10;0.10;;;;;;;18.28;76.24;97056.22;5019508;28;20777;-80
2023/08/10 09:53:13;;;;;;;0.10;0.10;;;;;;;18.41;68.00;97044.75;5012224;28;20482;-82
2023/08/10 09:56:00;;;;;;;0.17;0.17;;;;;;;18.56;78.99;97054.63;5027453;28;20673;-82
2023/08/10 09:58:46;;;;;;;0.13;0.13;;;;;;;18.79;85.51;97050.38;5019923;28;20156;-81
2023/08/10 10:01:33;;;;;;;0.10;0.10;;;;;;;18.93;80.63;97051.31;5026264;28;20140;-79
2023/08/10 10:04:19;;;;;;;0.10;0.10;;;;;;;18.83;84.48;97057.66;5024323;28;20056;-84
2023/08/10 10:07:09;;;;;;;0.20;0.20;;;;;;;18.92;80.71;97052.44;5026120;28;20040;-83
2023/08/10 10:09:58;;;;;;;0.10;0.10;;;;;;;19.13;79.23;97063.84;5027173;28;20037;-79
2023/08/10 10:12:48;;;;;;;0.20;0.20;;;;;;;19.15;68.02;97043.50;4996912;28;20068;-85
2023/08/10 10:15:36;;;;;;;0.20;0.20;;;;;;;19.20;75.55;97054.25;5026492;28;20079;-84
2023/08/10 10:18:24;;;;;;;0.10;0.10;;;;;;;19.37;82.44;97058.41;5022734;28;20052;-81
2023/08/10 10:21:10;;;;;;;0.10;0.10;;;;;;;19.45;84.69;97050.44;5023726;28;20576;-79
2023/08/10 10:24:01;;;;;;;0.20;0.20;;;;;;;19.57;86.51;97043.81;5025668;28;20041;-83
2023/08/10 10:27:09;;;;;;;0.10;0.10;;;;;;;19.81;81.58;97055.41;5013932;28;20037;-81
2023/08/10 10:29:59;;;;;;;0.10;0.10;;;;;;;19.82;85.06;97054.31;5023360;28;20075;-82
2023/08/10 10:32:48;;;;;;;0.10;0.10;;;;;;;20.07;78.07;97047.69;5022812;28;20051;-81
2023/08/10 10:35:33;;;;;;;0.15;0.15;;;;;;;20.35;77.59;97051.34;5028863;28;20088;-82
2023/08/10 10:38:19;;;;;;;0.20;0.20;;;;;;;20.38;74.36;97052.66;5027291;28;20119;-83
2023/08/10 10:41:16;;;;;;;0.20;0.20;;;;;;;20.64;77.10;97043.00;5026551;28;20107;-81
2023/08/10 10:44:03;;;;;;;0.10;0.10;;;;;;;21.14;75.98;97049.41;5003399;28;20482;-83
2023/08/10 10:46:49;;;;;;;0.17;0.17;;;;;;;21.39;76.81;97050.03;5023973;28;20041;-81
2023/08/10 10:49:35;;;;;;;0.10;0.10;;;;;;;21.43;74.28;97034.72;5025603;28;20696;-81
2023/08/10 10:52:36;;;;;;;0.13;0.13;;;;;;;21.61;62.78;97035.69;5024884;28;20068;-83
2023/08/10 10:55:24;;;;;;;0.15;0.15;;;;;;;21.61;56.76;97022.06;5024868;28;20045;-83
2023/08/10 10:58:12;;;;;;;0.20;0.20;;;;;;;21.80;56.17;97025.47;5023787;28;20064;-85
2023/08/10 11:00:58;;;;;;;0.20;0.20;;;;;;;22.22;60.69;97021.50;5011006;28;20049;-81
2023/08/10 11:03:54;;;;;;;0.20;0.20;;;;;;;22.69;48.09;97030.16;5026077;28;20041;-86
2023/08/10 11:06:40;;;;;;;0.10;0.10;;;;;;;23.73;50.25;97022.34;5014454;28;20048;-82
2023/08/10 11:09:26;;;;;;;0.10;0.10;;;;;;;24.87;44.90;97032.09;5026195;28;20134;-80
2023/08/10 11:12:12;;;;;;;0.20;0.20;;;;;;;26.70;37.45;97027.09;5023931;28;20041;-83
2023/08/10 11:14:58;;;;;;;0.20;0.20;;;;;;;28.39;34.84;97027.38;5025690;28;20733;-82
2023/08/10 11:17:49;;;;;;;0.20;0.20;;;;;;;29.54;34.61;97031.19;5013213;28;20049;-83
2023/08/10 11:20:41;;;;;;;0.20;0.20;;;;;;;30.69;31.37;97022.25;5022643;28;20049;-84
2023/08/10 11:23:27;;;;;;;0.10;0.10;;;;;;;32.60;28.80;97022.81;5023749;28;20505;-83
2023/08/10 11:26:13;;;;;;;0.20;0.20;;;;;;;33.79;26.86;97017.19;5028583;28;20064;-79
2023/08/10 11:28:59;;;;;;;0.10;0.10;;;;;;;35.32;23.84;97025.28;5023913;28;20049;-79
2023/08/10 11:31:46;;;;;;;0.13;0.13;;;;;;;36.04;23.75;97021.28;5023360;28;20068;-81
2023/08/10 11:34:34;;;;;;;0.10;0.10;;;;;;;37.55;21.45;97008.91;5014045;28;20041;-84
2023/08/10 11:37:28;;;;;;;0.20;0.20;;;;;;;37.42;21.09;97005.03;5024733;28;20048;-83
2023/08/10 11:40:22;;;;;;;0.10;0.10;;;;;;;36.43;22.52;97003.66;5018360;28;20045;-85
2023/08/10 11:43:12;;;;;;;0.10;0.10;;;;;;;35.39;21.98;97020.53;5026263;28;20037;-81
2023/08/10 11:46:04;;;;;;;0.10;0.10;;;;;;;37.66;21.44;97008.78;5025263;28;20078;-85
2023/08/10 11:48:51;;;;;;;0.00;0.00;;;;;;;38.50;20.03;97001.91;5024950;28;20042;-85
2023/08/10 11:51:37;;;;;;;0.10;0.10;;;;;;;38.65;20.71;97001.31;5011819;28;20038;-82
2023/08/10 11:54:31;;;;;;;0.17;0.17;;;;;;;38.74;18.75;97003.59;5023934;28;20037;-81
2023/08/10 11:57:16;;;;;;;0.20;0.20;;;;;;;38.44;18.51;97004.38;5024235;28;20103;-84
2023/08/10 12:00:22;;;;;;;0.20;0.20;;;;;;;39.08;18.30;97008.31;5024048;28;20498;-83
2023/08/10 12:03:16;;;;;;;0.20;0.20;;;;;;;40.52;18.64;97013.78;5023026;28;20061;-83
2023/08/10 12:06:04;;;;;;;0.20;0.20;;;;;;;41.45;16.24;97006.84;5024861;28;20037;-82
2023/08/10 12:08:51;;;;;;;0.10;0.10;;;;;;;41.27;15.80;97012.88;5025378;28;20729;-82
2023/08/10 12:11:38;;;;;;;0.20;0.20;;;;;;;42.33;16.78;97004.94;5021313;28;20044;-81
2023/08/10 12:14:24;;;;;;;0.20;0.20;;;;;;;39.78;17.04;97002.78;5026099;28;20044;-82
2023/08/10 12:17:10;;;;;;;0.15;0.15;;;;;;;40.74;16.69;97009.28;5023644;28;20041;-83
2023/08/10 12:19:56;;;;;;;0.10;0.10;;;;;;;41.38;17.18;96998.59;5024414;28;20033;-79
2023/08/10 12:22:44;;;;;;;0.10;0.10;;;;;;;42.06;14.99;96997.63;5025649;28;20107;-81
2023/08/10 12:25:30;;;;;;;0.10;0.10;;;;;;;43.17;15.33;96997.97;5023297;28;20099;-83
2023/08/10 12:28:18;;;;;;;0.10;0.10;;;;;;;43.83;14.15;96992.59;5010438;28;20041;-84
2023/08/10 12:31:05;;;;;;;0.10;0.10;;;;;;;43.19;15.06;96995.47;5023890;28;20112;-81
2023/08/10 12:33:55;;;;;;;0.10;0.10;;;;;;;44.00;14.18;96998.84;5022943;28;20449;-83
2023/08/10 12:36:41;;;;;;;0.10;0.10;;;;;;;43.58;13.84;96990.59;5024811;28;20037;-82
2023/08/10 12:39:28;;;;;;;0.10;0.10;;;;;;;44.69;14.35;96993.06;5001056;28;20111;-82
2023/08/10 12:42:15;;;;;;;0.10;0.10;;;;;;;43.37;15.31;96997.75;5022906;28;20072;-83
2023/08/10 12:45:01;;;;;;;0.10;0.10;;;;;;;43.85;14.66;97001.38;5029184;28;20041;-85
2023/08/10 12:47:47;;;;;;;0.10;0.10;;;;;;;43.65;14.67;96990.34;5045906;28;20049;-80
2023/08/10 12:50:33;;;;;;;0.10;0.10;;;;;;;44.84;13.75;96998.94;5045043;28;20077;-80
2023/08/10 12:53:19;;;;;;;0.10;0.10;;;;;;;44.15;13.77;96994.28;5037464;28;20048;-84
2023/08/10 12:56:05;;;;;;;0.10;0.10;;;;;;;45.04;14.01;96999.34;5027775;28;20490;-83
2023/08/10 12:58:51;;;;;;;0.00;0.00;;;;;;;45.70;13.41;96993.47;5011420;28;20546;-82
2023/08/10 13:01:37;;;;;;;0.10;0.10;;;;;;;45.81;12.65;96996.59;5025983;28;20149;-84